sensor_id;sensor_type;location;lat;lon;timestamp;P1;durP1;ratioP1;P2;durP2;ratioP2
71236;SDS011;58984;51.960;5.582;2023-05-10T00:00:37;29.75;;;17.00;;
71236;SDS011;58984;51.960;5.582;2023-05-10T00:03:02;27.02;;;16.35;;
71236;SDS011;58984;51.960;5.582;2023-05-10T00:05:29;28.90;;;16.63;;
71236;SDS011;58984;51.960;5.582;2023-05-10T00:07:54;31.73;;;16.63;;
71236;SDS011;58984;51.960;5.582;2023-05-10T00:10:20;27.75;;;17.63;;
71236;SDS011;58984;51.960;5.582;2023-05-10T00:12:46;30.92;;;17.92;;
71236;SDS011;58984;51.960;5.582;2023-05-10T00:15:11;31.27;;;17.85;;
71236;SDS011;58984;51.960;5.582;2023-05-10T00:17:37;29.30;;;16.85;;
71236;SDS011;58984;51.960;5.582;2023-05-10T00:20:02;33.10;;;18.20;;
71236;SDS011;58984;51.960;5.582;2023-05-10T00:22:29;27.98;;;16.63;;
71236;SDS011;58984;51.960;5.582;2023-05-10T00:24:55;30.38;;;17.90;;
71236;SDS011;58984;51.960;5.582;2023-05-10T00:27:21;31.77;;;18.25;;
71236;SDS011;58984;51.960;5.582;2023-05-10T00:29:46;28.25;;;17.15;;
71236;SDS011;58984;51.960;5.582;2023-05-10T00:32:12;36.63;;;18.10;;
71236;SDS011;58984;51.960;5.582;2023-05-10T00:34:38;31.48;;;17.38;;
71236;SDS011;58984;51.960;5.582;2023-05-10T00:37:04;32.97;;;18.27;;
71236;SDS011;58984;51.960;5.582;2023-05-10T00:39:30;26.67;;;16.67;;
71236;SDS011;58984;51.960;5.582;2023-05-10T00:41:56;29.67;;;17.00;;
71236;SDS011;58984;51.960;5.582;2023-05-10T00:44:21;35.10;;;18.70;;
71236;SDS011;58984;51.960;5.582;2023-05-10T00:46:47;30.52;;;17.10;;
71236;SDS011;58984;51.960;5.582;2023-05-10T00:49:14;32.17;;;16.00;;
71236;SDS011;58984;51.960;5.582;2023-05-10T00:51:40;32.30;;;17.80;;
71236;SDS011;58984;51.960;5.582;2023-05-10T00:54:07;29.85;;;18.00;;
71236;SDS011;58984;51.960;5.582;2023-05-10T00:56:36;31.33;;;17.38;;
71236;SDS011;58984;51.960;5.582;2023-05-10T00:59:01;28.60;;;16.60;;
71236;SDS011;58984;51.960;5.582;2023-05-10T01:01:28;31.95;;;17.45;;
71236;SDS011;58984;51.960;5.582;2023-05-10T01:03:54;28.23;;;16.70;;
71236;SDS011;58984;51.960;5.582;2023-05-10T01:06:20;31.77;;;16.92;;
71236;SDS011;58984;51.960;5.582;2023-05-10T01:08:45;31.05;;;17.40;;
71236;SDS011;58984;51.960;5.582;2023-05-10T01:11:12;33.10;;;16.75;;
71236;SDS011;58984;51.960;5.582;2023-05-10T01:13:38;28.42;;;16.55;;
71236;SDS011;58984;51.960;5.582;2023-05-10T01:16:07;28.25;;;16.33;;
71236;SDS011;58984;51.960;5.582;2023-05-10T01:18:33;30.58;;;16.58;;
71236;SDS011;58984;51.960;5.582;2023-05-10T01:24:03;25.60;;;15.68;;
71236;SDS011;58984;51.960;5.582;2023-05-10T01:40:39;32.45;;;17.85;;
71236;SDS011;58984;51.960;5.582;2023-05-10T01:43:16;33.85;;;18.25;;
71236;SDS011;58984;51.960;5.582;2023-05-10T01:46:09;32.80;;;17.50;;
71236;SDS011;58984;51.960;5.582;2023-05-10T01:48:58;32.80;;;17.77;;
71236;SDS011;58984;51.960;5.582;2023-05-10T01:51:23;36.53;;;18.70;;
71236;SDS011;58984;51.960;5.582;2023-05-10T01:53:54;35.85;;;17.88;;
71236;SDS011;58984;51.960;5.582;2023-05-10T01:56:25;30.67;;;17.92;;
71236;SDS011;58984;51.960;5.582;2023-05-10T01:58:52;31.63;;;16.95;;
71236;SDS011;58984;51.960;5.582;2023-05-10T02:01:20;34.45;;;18.27;;
71236;SDS011;58984;51.960;5.582;2023-05-10T02:03:46;31.20;;;17.92;;
71236;SDS011;58984;51.960;5.582;2023-05-10T02:06:14;36.65;;;20.42;;
71236;SDS011;58984;51.960;5.582;2023-05-10T02:08:43;33.88;;;19.02;;
71236;SDS011;58984;51.960;5.582;2023-05-10T02:11:12;37.97;;;20.48;;
71236;SDS011;58984;51.960;5.582;2023-05-10T02:13:38;39.30;;;20.60;;
71236;SDS011;58984;51.960;5.582;2023-05-10T02:16:05;42.90;;;21.45;;
71236;SDS011;58984;51.960;5.582;2023-05-10T02:18:31;41.13;;;20.48;;
71236;SDS011;58984;51.960;5.582;2023-05-10T02:20:59;37.50;;;20.42;;
71236;SDS011;58984;51.960;5.582;2023-05-10T02:23:26;43.47;;;21.88;;
71236;SDS011;58984;51.960;5.582;2023-05-10T02:25:53;37.63;;;20.75;;
71236;SDS011;58984;51.960;5.582;2023-05-10T02:28:21;38.25;;;21.67;;
71236;SDS011;58984;51.960;5.582;2023-05-10T02:30:48;41.40;;;19.67;;
71236;SDS011;58984;51.960;5.582;2023-05-10T02:33:15;44.38;;;21.45;;
71236;SDS011;58984;51.960;5.582;2023-05-10T02:35:42;39.92;;;21.02;;
71236;SDS011;58984;51.960;5.582;2023-05-10T02:38:08;41.00;;;22.73;;
71236;SDS011;58984;51.960;5.582;2023-05-10T02:40:35;41.10;;;21.40;;
71236;SDS011;58984;51.960;5.582;2023-05-10T02:43:02;39.63;;;20.88;;
71236;SDS011;58984;51.960;5.582;2023-05-10T02:45:31;41.33;;;20.83;;
71236;SDS011;58984;51.960;5.582;2023-05-10T02:47:59;38.45;;;20.88;;
71236;SDS011;58984;51.960;5.582;2023-05-10T02:50:28;39.95;;;20.80;;
71236;SDS011;58984;51.960;5.582;2023-05-10T02:52:59;43.70;;;22.23;;
71236;SDS011;58984;51.960;5.582;2023-05-10T02:55:30;39.65;;;21.55;;
71236;SDS011;58984;51.960;5.582;2023-05-10T02:58:01;39.15;;;21.20;;
71236;SDS011;58984;51.960;5.582;2023-05-10T03:00:27;41.88;;;21.98;;
71236;SDS011;58984;51.960;5.582;2023-05-10T03:02:53;39.70;;;21.20;;
71236;SDS011;58984;51.960;5.582;2023-05-10T03:05:19;39.25;;;21.40;;
71236;SDS011;58984;51.960;5.582;2023-05-10T03:07:45;40.40;;;21.42;;
71236;SDS011;58984;51.960;5.582;2023-05-10T03:10:11;39.50;;;21.23;;
71236;SDS011;58984;51.960;5.582;2023-05-10T03:12:41;38.70;;;21.20;;
71236;SDS011;58984;51.960;5.582;2023-05-10T03:15:37;39.50;;;21.17;;
71236;SDS011;58984;51.960;5.582;2023-05-10T03:18:22;44.83;;;21.67;;
71236;SDS011;58984;51.960;5.582;2023-05-10T03:20:56;39.90;;;22.15;;
71236;SDS011;58984;51.960;5.582;2023-05-10T03:23:30;39.73;;;21.13;;
71236;SDS011;58984;51.960;5.582;2023-05-10T03:26:04;39.13;;;21.05;;
71236;SDS011;58984;51.960;5.582;2023-05-10T03:28:30;40.83;;;20.00;;
71236;SDS011;58984;51.960;5.582;2023-05-10T03:30:58;37.35;;;20.33;;
71236;SDS011;58984;51.960;5.582;2023-05-10T03:33:24;36.70;;;21.40;;
71236;SDS011;58984;51.960;5.582;2023-05-10T03:35:50;36.35;;;20.08;;
71236;SDS011;58984;51.960;5.582;2023-05-10T03:38:16;37.58;;;19.77;;
71236;SDS011;58984;51.960;5.582;2023-05-10T03:40:41;34.35;;;19.98;;
71236;SDS011;58984;51.960;5.582;2023-05-10T03:43:07;37.38;;;20.58;;
71236;SDS011;58984;51.960;5.582;2023-05-10T03:45:32;35.25;;;19.80;;
71236;SDS011;58984;51.960;5.582;2023-05-10T03:47:58;37.35;;;21.08;;
71236;SDS011;58984;51.960;5.582;2023-05-10T03:50:24;41.35;;;20.00;;
71236;SDS011;58984;51.960;5.582;2023-05-10T03:52:49;34.58;;;19.02;;
71236;SDS011;58984;51.960;5.582;2023-05-10T03:55:15;36.75;;;19.48;;
71236;SDS011;58984;51.960;5.582;2023-05-10T03:57:41;36.45;;;20.67;;
71236;SDS011;58984;51.960;5.582;2023-05-10T04:00:07;35.70;;;19.33;;
71236;SDS011;58984;51.960;5.582;2023-05-10T04:02:33;33.92;;;19.25;;
71236;SDS011;58984;51.960;5.582;2023-05-10T04:04:59;40.90;;;20.73;;
71236;SDS011;58984;51.960;5.582;2023-05-10T04:07:25;39.40;;;19.58;;
71236;SDS011;58984;51.960;5.582;2023-05-10T04:09:50;40.97;;;19.85;;
71236;SDS011;58984;51.960;5.582;2023-05-10T04:12:16;39.63;;;19.08;;
71236;SDS011;58984;51.960;5.582;2023-05-10T04:14:41;33.80;;;19.50;;
71236;SDS011;58984;51.960;5.582;2023-05-10T04:17:07;44.55;;;19.52;;
71236;SDS011;58984;51.960;5.582;2023-05-10T04:19:32;38.30;;;19.23;;
71236;SDS011;58984;51.960;5.582;2023-05-10T04:21:58;32.97;;;18.15;;
71236;SDS011;58984;51.960;5.582;2023-05-10T04:24:24;33.58;;;18.10;;
71236;SDS011;58984;51.960;5.582;2023-05-10T04:26:50;34.72;;;18.85;;
71236;SDS011;58984;51.960;5.582;2023-05-10T04:29:16;31.42;;;17.08;;
71236;SDS011;58984;51.960;5.582;2023-05-10T04:31:41;33.80;;;17.52;;
71236;SDS011;58984;51.960;5.582;2023-05-10T04:34:07;31.55;;;17.35;;
71236;SDS011;58984;51.960;5.582;2023-05-10T04:36:32;32.95;;;17.27;;
71236;SDS011;58984;51.960;5.582;2023-05-10T04:39:00;28.60;;;16.08;;
71236;SDS011;58984;51.960;5.582;2023-05-10T04:41:27;31.25;;;17.25;;
71236;SDS011;58984;51.960;5.582;2023-05-10T04:43:53;33.42;;;17.02;;
71236;SDS011;58984;51.960;5.582;2023-05-10T04:46:18;31.58;;;16.55;;
71236;SDS011;58984;51.960;5.582;2023-05-10T04:48:44;30.17;;;17.30;;
71236;SDS011;58984;51.960;5.582;2023-05-10T04:51:10;34.40;;;17.98;;
71236;SDS011;58984;51.960;5.582;2023-05-10T04:53:36;31.25;;;17.17;;
71236;SDS011;58984;51.960;5.582;2023-05-10T04:56:02;34.55;;;18.73;;
71236;SDS011;58984;51.960;5.582;2023-05-10T04:58:27;36.30;;;18.35;;
71236;SDS011;58984;51.960;5.582;2023-05-10T05:00:53;29.98;;;16.20;;
71236;SDS011;58984;51.960;5.582;2023-05-10T05:03:18;29.65;;;17.05;;
71236;SDS011;58984;51.960;5.582;2023-05-10T05:05:44;33.65;;;18.00;;
71236;SDS011;58984;51.960;5.582;2023-05-10T05:08:10;31.40;;;17.73;;
71236;SDS011;58984;51.960;5.582;2023-05-10T05:10:35;33.85;;;17.45;;
71236;SDS011;58984;51.960;5.582;2023-05-10T05:13:01;34.15;;;17.63;;
71236;SDS011;58984;51.960;5.582;2023-05-10T05:15:26;34.80;;;17.85;;
71236;SDS011;58984;51.960;5.582;2023-05-10T05:17:52;38.45;;;19.20;;
71236;SDS011;58984;51.960;5.582;2023-05-10T05:20:18;34.53;;;18.67;;
71236;SDS011;58984;51.960;5.582;2023-05-10T05:22:44;31.60;;;16.77;;
71236;SDS011;58984;51.960;5.582;2023-05-10T05:25:09;34.60;;;17.20;;
71236;SDS011;58984;51.960;5.582;2023-05-10T05:27:36;32.53;;;16.52;;
71236;SDS011;58984;51.960;5.582;2023-05-10T05:30:02;31.73;;;18.08;;
71236;SDS011;58984;51.960;5.582;2023-05-10T05:32:28;30.27;;;17.23;;
71236;SDS011;58984;51.960;5.582;2023-05-10T05:34:54;33.25;;;18.60;;
71236;SDS011;58984;51.960;5.582;2023-05-10T05:37:20;28.88;;;16.70;;
71236;SDS011;58984;51.960;5.582;2023-05-10T05:39:46;33.22;;;17.20;;
71236;SDS011;58984;51.960;5.582;2023-05-10T05:42:12;35.35;;;17.63;;
71236;SDS011;58984;51.960;5.582;2023-05-10T05:44:39;34.55;;;18.15;;
71236;SDS011;58984;51.960;5.582;2023-05-10T05:47:05;34.38;;;17.35;;
71236;SDS011;58984;51.960;5.582;2023-05-10T05:49:31;29.90;;;18.00;;
71236;SDS011;58984;51.960;5.582;2023-05-10T05:52:00;33.35;;;18.10;;
71236;SDS011;58984;51.960;5.582;2023-05-10T05:54:27;35.97;;;18.02;;
71236;SDS011;58984;51.960;5.582;2023-05-10T05:56:59;33.08;;;17.40;;
71236;SDS011;58984;51.960;5.582;2023-05-10T05:59:25;31.00;;;17.30;;
71236;SDS011;58984;51.960;5.582;2023-05-10T06:01:51;36.90;;;18.00;;
71236;SDS011;58984;51.960;5.582;2023-05-10T06:04:17;33.88;;;17.85;;
71236;SDS011;58984;51.960;5.582;2023-05-10T06:06:43;32.50;;;17.58;;
71236;SDS011;58984;51.960;5.582;2023-05-10T06:09:09;32.78;;;18.15;;
71236;SDS011;58984;51.960;5.582;2023-05-10T06:11:35;38.95;;;18.73;;
71236;SDS011;58984;51.960;5.582;2023-05-10T06:14:01;32.10;;;18.38;;
71236;SDS011;58984;51.960;5.582;2023-05-10T06:16:27;36.72;;;19.88;;
71236;SDS011;58984;51.960;5.582;2023-05-10T06:18:52;36.15;;;19.00;;
71236;SDS011;58984;51.960;5.582;2023-05-10T06:21:18;36.22;;;20.55;;
71236;SDS011;58984;51.960;5.582;2023-05-10T06:23:44;33.03;;;18.95;;
71236;SDS011;58984;51.960;5.582;2023-05-10T06:26:10;42.47;;;20.35;;
71236;SDS011;58984;51.960;5.582;2023-05-10T06:28:35;36.03;;;20.63;;
71236;SDS011;58984;51.960;5.582;2023-05-10T06:31:03;38.13;;;20.23;;
71236;SDS011;58984;51.960;5.582;2023-05-10T06:33:29;39.50;;;19.90;;
71236;SDS011;58984;51.960;5.582;2023-05-10T06:35:54;38.83;;;19.95;;
71236;SDS011;58984;51.960;5.582;2023-05-10T06:38:20;40.38;;;19.42;;
71236;SDS011;58984;51.960;5.582;2023-05-10T06:40:46;42.35;;;22.10;;
71236;SDS011;58984;51.960;5.582;2023-05-10T06:43:12;39.13;;;20.83;;
71236;SDS011;58984;51.960;5.582;2023-05-10T06:45:37;45.10;;;21.88;;
71236;SDS011;58984;51.960;5.582;2023-05-10T06:48:03;40.20;;;22.08;;
71236;SDS011;58984;51.960;5.582;2023-05-10T06:50:28;46.67;;;23.45;;
71236;SDS011;58984;51.960;5.582;2023-05-10T06:52:54;41.63;;;22.50;;
71236;SDS011;58984;51.960;5.582;2023-05-10T06:55:20;48.70;;;22.92;;
71236;SDS011;58984;51.960;5.582;2023-05-10T06:57:46;46.55;;;24.08;;
71236;SDS011;58984;51.960;5.582;2023-05-10T07:00:12;45.20;;;22.92;;
71236;SDS011;58984;51.960;5.582;2023-05-10T07:02:38;49.72;;;21.95;;
71236;SDS011;58984;51.960;5.582;2023-05-10T07:05:04;43.17;;;21.88;;
71236;SDS011;58984;51.960;5.582;2023-05-10T07:07:30;41.10;;;21.33;;
71236;SDS011;58984;51.960;5.582;2023-05-10T07:09:56;43.00;;;21.58;;
71236;SDS011;58984;51.960;5.582;2023-05-10T07:12:22;38.90;;;22.13;;
71236;SDS011;58984;51.960;5.582;2023-05-10T07:14:48;42.78;;;21.40;;
71236;SDS011;58984;51.960;5.582;2023-05-10T07:17:14;46.53;;;22.20;;
71236;SDS011;58984;51.960;5.582;2023-05-10T07:19:41;38.72;;;20.63;;
71236;SDS011;58984;51.960;5.582;2023-05-10T07:22:06;42.35;;;22.13;;
71236;SDS011;58984;51.960;5.582;2023-05-10T07:24:33;44.10;;;21.30;;
71236;SDS011;58984;51.960;5.582;2023-05-10T07:26:58;49.88;;;23.13;;
71236;SDS011;58984;51.960;5.582;2023-05-10T07:29:24;43.72;;;22.17;;
71236;SDS011;58984;51.960;5.582;2023-05-10T07:31:50;39.03;;;21.55;;
71236;SDS011;58984;51.960;5.582;2023-05-10T07:34:15;41.55;;;22.70;;
71236;SDS011;58984;51.960;5.582;2023-05-10T07:36:41;43.85;;;22.95;;
71236;SDS011;58984;51.960;5.582;2023-05-10T07:39:07;44.17;;;22.17;;
71236;SDS011;58984;51.960;5.582;2023-05-10T07:41:32;39.50;;;20.92;;
71236;SDS011;58984;51.960;5.582;2023-05-10T07:43:58;46.22;;;23.13;;
71236;SDS011;58984;51.960;5.582;2023-05-10T07:46:23;46.33;;;22.58;;
71236;SDS011;58984;51.960;5.582;2023-05-10T07:48:49;42.33;;;21.70;;
71236;SDS011;58984;51.960;5.582;2023-05-10T07:51:14;46.40;;;21.58;;
71236;SDS011;58984;51.960;5.582;2023-05-10T07:53:40;46.63;;;21.17;;
71236;SDS011;58984;51.960;5.582;2023-05-10T07:56:22;40.80;;;20.23;;
71236;SDS011;58984;51.960;5.582;2023-05-10T07:58:49;37.63;;;19.13;;
71236;SDS011;58984;51.960;5.582;2023-05-10T08:01:15;36.53;;;19.08;;
71236;SDS011;58984;51.960;5.582;2023-05-10T08:03:41;37.13;;;18.52;;
71236;SDS011;58984;51.960;5.582;2023-05-10T08:06:06;32.63;;;17.88;;
71236;SDS011;58984;51.960;5.582;2023-05-10T08:08:32;41.75;;;18.60;;
71236;SDS011;58984;51.960;5.582;2023-05-10T08:10:57;32.65;;;17.63;;
71236;SDS011;58984;51.960;5.582;2023-05-10T08:13:23;32.25;;;15.90;;
71236;SDS011;58984;51.960;5.582;2023-05-10T08:15:48;29.92;;;15.77;;
71236;SDS011;58984;51.960;5.582;2023-05-10T08:18:14;30.00;;;15.68;;
71236;SDS011;58984;51.960;5.582;2023-05-10T08:20:39;30.13;;;14.07;;
71236;SDS011;58984;51.960;5.582;2023-05-10T08:23:05;22.60;;;12.40;;
71236;SDS011;58984;51.960;5.582;2023-05-10T08:25:31;25.92;;;11.93;;
71236;SDS011;58984;51.960;5.582;2023-05-10T08:27:57;21.98;;;11.30;;
71236;SDS011;58984;51.960;5.582;2023-05-10T08:30:22;19.23;;;10.45;;
71236;SDS011;58984;51.960;5.582;2023-05-10T08:32:48;17.23;;;9.88;;
71236;SDS011;58984;51.960;5.582;2023-05-10T08:35:13;15.40;;;9.15;;
71236;SDS011;58984;51.960;5.582;2023-05-10T08:37:40;16.73;;;9.55;;
71236;SDS011;58984;51.960;5.582;2023-05-10T08:40:06;15.13;;;8.45;;
71236;SDS011;58984;51.960;5.582;2023-05-10T08:42:34;18.17;;;8.35;;
71236;SDS011;58984;51.960;5.582;2023-05-10T08:45:03;14.10;;;8.10;;
71236;SDS011;58984;51.960;5.582;2023-05-10T08:47:30;14.65;;;8.35;;
71236;SDS011;58984;51.960;5.582;2023-05-10T08:49:56;17.17;;;9.23;;
71236;SDS011;58984;51.960;5.582;2023-05-10T08:52:24;13.80;;;8.13;;
71236;SDS011;58984;51.960;5.582;2023-05-10T08:54:53;13.00;;;7.93;;
71236;SDS011;58984;51.960;5.582;2023-05-10T08:57:18;14.13;;;8.43;;
71236;SDS011;58984;51.960;5.582;2023-05-10T08:59:45;14.30;;;7.95;;
71236;SDS011;58984;51.960;5.582;2023-05-10T09:02:11;11.05;;;7.18;;
71236;SDS011;58984;51.960;5.582;2023-05-10T09:04:38;13.38;;;7.40;;
71236;SDS011;58984;51.960;5.582;2023-05-10T09:07:06;14.25;;;8.00;;
71236;SDS011;58984;51.960;5.582;2023-05-10T09:09:32;13.93;;;6.93;;
71236;SDS011;58984;51.960;5.582;2023-05-10T09:11:58;12.13;;;7.10;;
71236;SDS011;58984;51.960;5.582;2023-05-10T09:14:24;14.02;;;7.00;;
71236;SDS011;58984;51.960;5.582;2023-05-10T09:16:50;10.63;;;6.70;;
71236;SDS011;58984;51.960;5.582;2023-05-10T09:19:16;11.10;;;6.97;;
71236;SDS011;58984;51.960;5.582;2023-05-10T09:21:42;10.15;;;6.57;;
71236;SDS011;58984;51.960;5.582;2023-05-10T09:24:08;11.32;;;6.75;;
71236;SDS011;58984;51.960;5.582;2023-05-10T09:26:34;10.85;;;6.80;;
71236;SDS011;58984;51.960;5.582;2023-05-10T09:29:01;15.60;;;7.03;;
71236;SDS011;58984;51.960;5.582;2023-05-10T09:31:44;9.95;;;5.80;;
71236;SDS011;58984;51.960;5.582;2023-05-10T09:34:16;9.48;;;6.40;;
71236;SDS011;58984;51.960;5.582;2023-05-10T09:36:53;12.93;;;6.47;;
71236;SDS011;58984;51.960;5.582;2023-05-10T09:39:21;11.30;;;6.03;;
71236;SDS011;58984;51.960;5.582;2023-05-10T09:41:59;13.27;;;6.60;;
71236;SDS011;58984;51.960;5.582;2023-05-10T09:44:28;11.68;;;5.80;;
71236;SDS011;58984;51.960;5.582;2023-05-10T09:46:54;10.65;;;6.47;;
71236;SDS011;58984;51.960;5.582;2023-05-10T09:49:22;10.27;;;5.80;;
71236;SDS011;58984;51.960;5.582;2023-05-10T09:52:09;11.95;;;6.68;;
71236;SDS011;58984;51.960;5.582;2023-05-10T09:54:34;11.18;;;6.05;;
71236;SDS011;58984;51.960;5.582;2023-05-10T09:57:00;9.02;;;5.65;;
71236;SDS011;58984;51.960;5.582;2023-05-10T09:59:26;11.50;;;5.95;;
71236;SDS011;58984;51.960;5.582;2023-05-10T10:01:55;10.82;;;6.40;;
71236;SDS011;58984;51.960;5.582;2023-05-10T10:04:22;11.43;;;5.82;;
71236;SDS011;58984;51.960;5.582;2023-05-10T10:06:58;9.95;;;6.18;;
71236;SDS011;58984;51.960;5.582;2023-05-10T10:09:28;7.75;;;5.20;;
71236;SDS011;58984;51.960;5.582;2023-05-10T10:11:53;10.07;;;6.28;;
71236;SDS011;58984;51.960;5.582;2023-05-10T10:14:19;8.82;;;5.55;;
71236;SDS011;58984;51.960;5.582;2023-05-10T10:16:46;9.45;;;5.85;;
71236;SDS011;58984;51.960;5.582;2023-05-10T10:19:12;12.85;;;5.97;;
71236;SDS011;58984;51.960;5.582;2023-05-10T10:21:38;9.48;;;5.53;;
71236;SDS011;58984;51.960;5.582;2023-05-10T10:24:04;10.73;;;5.75;;
71236;SDS011;58984;51.960;5.582;2023-05-10T10:26:30;9.82;;;5.75;;
71236;SDS011;58984;51.960;5.582;2023-05-10T10:31:56;10.73;;;5.53;;
71236;SDS011;58984;51.960;5.582;2023-05-10T10:34:32;13.38;;;6.75;;
71236;SDS011;58984;51.960;5.582;2023-05-10T10:36:58;9.13;;;6.30;;
71236;SDS011;58984;51.960;5.582;2023-05-10T10:39:29;7.47;;;5.30;;
71236;SDS011;58984;51.960;5.582;2023-05-10T10:41:56;11.48;;;6.60;;
71236;SDS011;58984;51.960;5.582;2023-05-10T10:49:51;11.43;;;6.70;;
71236;SDS011;58984;51.960;5.582;2023-05-10T10:52:32;11.77;;;7.15;;
71236;SDS011;58984;51.960;5.582;2023-05-10T10:55:02;10.48;;;5.60;;
71236;SDS011;58984;51.960;5.582;2023-05-10T11:00:31;11.45;;;6.18;;
71236;SDS011;58984;51.960;5.582;2023-05-10T11:08:16;9.32;;;5.65;;
71236;SDS011;58984;51.960;5.582;2023-05-10T11:13:40;11.35;;;6.47;;
71236;SDS011;58984;51.960;5.582;2023-05-10T11:18:51;8.63;;;5.70;;
71236;SDS011;58984;51.960;5.582;2023-05-10T11:21:18;8.07;;;5.05;;
71236;SDS011;58984;51.960;5.582;2023-05-10T11:23:51;6.88;;;4.70;;
71236;SDS011;58984;51.960;5.582;2023-05-10T11:26:21;7.50;;;5.43;;
71236;SDS011;58984;51.960;5.582;2023-05-10T11:28:50;8.52;;;4.60;;
71236;SDS011;58984;51.960;5.582;2023-05-10T11:31:18;7.95;;;4.45;;
71236;SDS011;58984;51.960;5.582;2023-05-10T11:33:49;6.80;;;4.47;;
71236;SDS011;58984;51.960;5.582;2023-05-10T11:36:17;8.60;;;5.00;;
71236;SDS011;58984;51.960;5.582;2023-05-10T11:38:48;7.15;;;4.45;;
71236;SDS011;58984;51.960;5.582;2023-05-10T11:41:15;9.50;;;5.05;;
71236;SDS011;58984;51.960;5.582;2023-05-10T11:43:43;5.32;;;4.10;;
71236;SDS011;58984;51.960;5.582;2023-05-10T11:46:12;6.85;;;4.60;;
71236;SDS011;58984;51.960;5.582;2023-05-10T11:48:38;6.72;;;3.80;;
71236;SDS011;58984;51.960;5.582;2023-05-10T11:51:05;8.40;;;4.07;;
71236;SDS011;58984;51.960;5.582;2023-05-10T11:53:32;6.55;;;4.22;;
71236;SDS011;58984;51.960;5.582;2023-05-10T11:56:10;7.35;;;4.35;;
71236;SDS011;58984;51.960;5.582;2023-05-10T11:58:36;4.43;;;3.70;;
71236;SDS011;58984;51.960;5.582;2023-05-10T12:01:04;5.53;;;3.90;;
71236;SDS011;58984;51.960;5.582;2023-05-10T12:03:31;5.80;;;3.92;;
71236;SDS011;58984;51.960;5.582;2023-05-10T12:05:57;5.93;;;4.38;;
71236;SDS011;58984;51.960;5.582;2023-05-10T12:08:27;7.93;;;4.15;;
71236;SDS011;58984;51.960;5.582;2023-05-10T12:11:05;6.22;;;4.03;;
71236;SDS011;58984;51.960;5.582;2023-05-10T12:13:31;5.75;;;3.75;;
71236;SDS011;58984;51.960;5.582;2023-05-10T12:15:57;7.20;;;3.90;;
71236;SDS011;58984;51.960;5.582;2023-05-10T12:18:24;4.88;;;3.53;;
71236;SDS011;58984;51.960;5.582;2023-05-10T12:20:51;7.72;;;3.88;;
71236;SDS011;58984;51.960;5.582;2023-05-10T12:23:18;6.70;;;3.90;;
71236;SDS011;58984;51.960;5.582;2023-05-10T12:25:45;6.10;;;3.78;;
71236;SDS011;58984;51.960;5.582;2023-05-10T12:28:11;4.50;;;3.20;;
71236;SDS011;58984;51.960;5.582;2023-05-10T12:30:37;4.80;;;3.63;;
71236;SDS011;58984;51.960;5.582;2023-05-10T12:33:10;6.47;;;3.78;;
71236;SDS011;58984;51.960;5.582;2023-05-10T12:35:51;5.28;;;3.22;;
71236;SDS011;58984;51.960;5.582;2023-05-10T12:38:25;6.28;;;3.90;;
71236;SDS011;58984;51.960;5.582;2023-05-10T12:40:56;6.00;;;3.85;;
71236;SDS011;58984;51.960;5.582;2023-05-10T12:43:22;11.00;;;4.95;;
71236;SDS011;58984;51.960;5.582;2023-05-10T12:45:48;10.70;;;5.80;;
71236;SDS011;58984;51.960;5.582;2023-05-10T12:48:16;6.78;;;5.07;;
71236;SDS011;58984;51.960;5.582;2023-05-10T12:50:41;8.82;;;6.25;;
71236;SDS011;58984;51.960;5.582;2023-05-10T12:53:07;9.18;;;5.32;;
71236;SDS011;58984;51.960;5.582;2023-05-10T12:55:33;10.10;;;6.85;;
71236;SDS011;58984;51.960;5.582;2023-05-10T12:57:59;8.35;;;5.85;;
71236;SDS011;58984;51.960;5.582;2023-05-10T13:00:25;8.57;;;6.55;;
71236;SDS011;58984;51.960;5.582;2023-05-10T13:02:50;9.50;;;6.28;;
71236;SDS011;58984;51.960;5.582;2023-05-10T13:05:16;11.00;;;6.22;;
71236;SDS011;58984;51.960;5.582;2023-05-10T13:07:41;9.90;;;6.90;;
71236;SDS011;58984;51.960;5.582;2023-05-10T13:10:08;10.50;;;6.72;;
71236;SDS011;58984;51.960;5.582;2023-05-10T13:12:35;10.32;;;6.70;;
71236;SDS011;58984;51.960;5.582;2023-05-10T13:15:01;9.95;;;6.90;;
71236;SDS011;58984;51.960;5.582;2023-05-10T13:17:27;11.75;;;7.53;;
71236;SDS011;58984;51.960;5.582;2023-05-10T13:19:54;13.15;;;7.32;;
71236;SDS011;58984;51.960;5.582;2023-05-10T13:22:19;10.75;;;7.78;;
71236;SDS011;58984;51.960;5.582;2023-05-10T13:24:45;9.50;;;7.55;;
71236;SDS011;58984;51.960;5.582;2023-05-10T13:27:11;12.13;;;8.55;;
71236;SDS011;58984;51.960;5.582;2023-05-10T13:29:36;13.20;;;9.00;;
71236;SDS011;58984;51.960;5.582;2023-05-10T13:32:02;17.35;;;9.90;;
71236;SDS011;58984;51.960;5.582;2023-05-10T13:34:27;13.30;;;8.32;;
71236;SDS011;58984;51.960;5.582;2023-05-10T13:36:53;11.07;;;8.50;;
71236;SDS011;58984;51.960;5.582;2023-05-10T13:39:20;9.65;;;7.55;;
71236;SDS011;58984;51.960;5.582;2023-05-10T13:41:46;11.45;;;7.40;;
71236;SDS011;58984;51.960;5.582;2023-05-10T13:44:12;9.70;;;6.30;;
71236;SDS011;58984;51.960;5.582;2023-05-10T13:46:39;9.20;;;6.30;;
71236;SDS011;58984;51.960;5.582;2023-05-10T13:49:05;6.70;;;5.72;;
71236;SDS011;58984;51.960;5.582;2023-05-10T13:51:31;9.30;;;5.63;;
71236;SDS011;58984;51.960;5.582;2023-05-10T13:53:59;6.63;;;5.43;;
71236;SDS011;58984;51.960;5.582;2023-05-10T13:56:24;8.30;;;5.80;;
71236;SDS011;58984;51.960;5.582;2023-05-10T13:58:50;7.65;;;5.28;;
71236;SDS011;58984;51.960;5.582;2023-05-10T14:01:16;7.85;;;5.75;;
71236;SDS011;58984;51.960;5.582;2023-05-10T14:03:41;7.80;;;5.38;;
71236;SDS011;58984;51.960;5.582;2023-05-10T14:06:07;7.45;;;5.22;;
71236;SDS011;58984;51.960;5.582;2023-05-10T14:08:33;7.97;;;5.28;;
71236;SDS011;58984;51.960;5.582;2023-05-10T14:11:00;8.00;;;5.20;;
71236;SDS011;58984;51.960;5.582;2023-05-10T14:13:26;7.43;;;4.70;;
71236;SDS011;58984;51.960;5.582;2023-05-10T14:15:52;7.72;;;4.88;;
71236;SDS011;58984;51.960;5.582;2023-05-10T14:18:18;7.20;;;5.20;;
71236;SDS011;58984;51.960;5.582;2023-05-10T14:20:44;8.82;;;5.95;;
71236;SDS011;58984;51.960;5.582;2023-05-10T14:23:10;8.82;;;5.90;;
71236;SDS011;58984;51.960;5.582;2023-05-10T14:25:35;11.57;;;6.30;;
71236;SDS011;58984;51.960;5.582;2023-05-10T14:28:02;7.30;;;5.38;;
71236;SDS011;58984;51.960;5.582;2023-05-10T14:30:28;10.05;;;6.13;;
71236;SDS011;58984;51.960;5.582;2023-05-10T14:32:54;9.00;;;6.32;;
71236;SDS011;58984;51.960;5.582;2023-05-10T14:35:20;8.85;;;5.47;;
71236;SDS011;58984;51.960;5.582;2023-05-10T14:37:46;12.25;;;5.70;;
71236;SDS011;58984;51.960;5.582;2023-05-10T14:40:11;14.30;;;6.50;;
71236;SDS011;58984;51.960;5.582;2023-05-10T14:42:37;11.18;;;6.13;;
71236;SDS011;58984;51.960;5.582;2023-05-10T14:45:03;8.35;;;5.40;;
71236;SDS011;58984;51.960;5.582;2023-05-10T14:47:29;7.78;;;5.55;;
71236;SDS011;58984;51.960;5.582;2023-05-10T14:49:55;13.45;;;6.72;;
71236;SDS011;58984;51.960;5.582;2023-05-10T14:52:20;8.73;;;5.47;;
71236;SDS011;58984;51.960;5.582;2023-05-10T14:54:46;8.50;;;5.82;;
71236;SDS011;58984;51.960;5.582;2023-05-10T14:57:11;8.30;;;5.90;;
71236;SDS011;58984;51.960;5.582;2023-05-10T14:59:37;13.20;;;6.22;;
71236;SDS011;58984;51.960;5.582;2023-05-10T15:02:03;11.82;;;6.15;;
71236;SDS011;58984;51.960;5.582;2023-05-10T15:04:29;10.73;;;6.40;;
71236;SDS011;58984;51.960;5.582;2023-05-10T15:06:55;10.07;;;5.68;;
71236;SDS011;58984;51.960;5.582;2023-05-10T15:09:24;9.85;;;5.65;;